sensor_id;sensor_type;location;lat;lon;timestamp;temperature;humidity
20057;DHT22;10189;49.546;7.906;2022-07-23T00:00:34;20.30;76.80
20057;DHT22;10189;49.546;7.906;2022-07-23T00:03:01;20.20;76.80
20057;DHT22;10189;49.546;7.906;2022-07-23T00:05:26;20.10;77.60
20057;DHT22;10189;49.546;7.906;2022-07-23T00:07:52;20.00;77.70
20057;DHT22;10189;49.546;7.906;2022-07-23T00:10:18;19.80;77.80
20057;DHT22;10189;49.546;7.906;2022-07-23T00:12:44;19.80;77.90
20057;DHT22;10189;49.546;7.906;2022-07-23T00:15:10;19.70;77.90
20057;DHT22;10189;49.546;7.906;2022-07-23T00:17:36;19.80;77.90
20057;DHT22;10189;49.546;7.906;2022-07-23T00:20:03;19.80;78.20
20057;DHT22;10189;49.546;7.906;2022-07-23T00:22:29;19.90;78.20
20057;DHT22;10189;49.546;7.906;2022-07-23T00:24:56;19.90;77.30
20057;DHT22;10189;49.546;7.906;2022-07-23T00:27:22;19.80;76.80
20057;DHT22;10189;49.546;7.906;2022-07-23T00:29:48;19.70;78.00
20057;DHT22;10189;49.546;7.906;2022-07-23T00:32:15;19.70;77.60
20057;DHT22;10189;49.546;7.906;2022-07-23T00:34:41;19.60;78.20
20057;DHT22;10189;49.546;7.906;2022-07-23T00:37:07;19.60;78.40
20057;DHT22;10189;49.546;7.906;2022-07-23T00:39:33;19.60;78.60
20057;DHT22;10189;49.546;7.906;2022-07-23T00:41:59;19.60;78.10
20057;DHT22;10189;49.546;7.906;2022-07-23T00:44:26;19.50;78.60
20057;DHT22;10189;49.546;7.906;2022-07-23T00:46:56;19.50;78.50
20057;DHT22;10189;49.546;7.906;2022-07-23T00:49:28;19.50;78.50
20057;DHT22;10189;49.546;7.906;2022-07-23T00:51:56;19.50;79.50
20057;DHT22;10189;49.546;7.906;2022-07-23T00:54:24;19.50;79.50
20057;DHT22;10189;49.546;7.906;2022-07-23T00:56:51;19.60;79.00
20057;DHT22;10189;49.546;7.906;2022-07-23T00:59:17;19.60;79.10
20057;DHT22;10189;49.546;7.906;2022-07-23T01:01:43;19.60;78.90
20057;DHT22;10189;49.546;7.906;2022-07-23T01:04:11;19.60;79.10
20057;DHT22;10189;49.546;7.906;2022-07-23T01:06:38;19.50;78.20
20057;DHT22;10189;49.546;7.906;2022-07-23T01:09:06;19.40;79.60
20057;DHT22;10189;49.546;7.906;2022-07-23T01:11:34;19.30;78.80
20057;DHT22;10189;49.546;7.906;2022-07-23T01:14:13;19.30;78.60
20057;DHT22;10189;49.546;7.906;2022-07-23T01:16:44;19.40;78.80
20057;DHT22;10189;49.546;7.906;2022-07-23T01:19:12;19.50;78.20
20057;DHT22;10189;49.546;7.906;2022-07-23T01:21:44;19.50;77.30
20057;DHT22;10189;49.546;7.906;2022-07-23T01:24:12;19.50;78.00
20057;DHT22;10189;49.546;7.906;2022-07-23T01:26:47;19.50;78.30
20057;DHT22;10189;49.546;7.906;2022-07-23T01:29:14;19.40;78.30
20057;DHT22;10189;49.546;7.906;2022-07-23T01:31:42;19.30;77.30
20057;DHT22;10189;49.546;7.906;2022-07-23T01:34:09;19.30;74.80
20057;DHT22;10189;49.546;7.906;2022-07-23T01:36:36;19.30;76.20
20057;DHT22;10189;49.546;7.906;2022-07-23T01:39:04;19.30;75.30
20057;DHT22;10189;49.546;7.906;2022-07-23T01:41:31;19.30;75.40
20057;DHT22;10189;49.546;7.906;2022-07-23T01:43:58;19.30;74.60
20057;DHT22;10189;49.546;7.906;2022-07-23T01:46:25;19.30;75.50
20057;DHT22;10189;49.546;7.906;2022-07-23T01:48:51;19.30;76.00
20057;DHT22;10189;49.546;7.906;2022-07-23T01:51:40;19.30;76.00
20057;DHT22;10189;49.546;7.906;2022-07-23T01:54:31;19.30;76.20
20057;DHT22;10189;49.546;7.906;2022-07-23T01:56:59;19.40;77.10
20057;DHT22;10189;49.546;7.906;2022-07-23T01:59:26;19.40;77.10
20057;DHT22;10189;49.546;7.906;2022-07-23T02:01:52;19.40;77.30
20057;DHT22;10189;49.546;7.906;2022-07-23T02:04:20;19.40;76.60
20057;DHT22;10189;49.546;7.906;2022-07-23T02:06:48;19.50;76.50
20057;DHT22;10189;49.546;7.906;2022-07-23T02:09:14;19.50;77.00
20057;DHT22;10189;49.546;7.906;2022-07-23T02:11:41;19.60;76.80
20057;DHT22;10189;49.546;7.906;2022-07-23T02:14:07;19.60;78.00
20057;DHT22;10189;49.546;7.906;2022-07-23T02:16:33;19.50;77.10
20057;DHT22;10189;49.546;7.906;2022-07-23T02:19:02;19.50;77.40
20057;DHT22;10189;49.546;7.906;2022-07-23T02:21:28;19.50;76.70
20057;DHT22;10189;49.546;7.906;2022-07-23T02:23:54;19.40;76.90
20057;DHT22;10189;49.546;7.906;2022-07-23T02:26:20;19.50;77.80
20057;DHT22;10189;49.546;7.906;2022-07-23T02:28:49;19.20;78.40
20057;DHT22;10189;49.546;7.906;2022-07-23T02:31:14;18.80;80.10
20057;DHT22;10189;49.546;7.906;2022-07-23T02:33:40;18.60;80.80
20057;DHT22;10189;49.546;7.906;2022-07-23T02:36:06;18.40;81.70
20057;DHT22;10189;49.546;7.906;2022-07-23T02:38:32;18.40;81.60
20057;DHT22;10189;49.546;7.906;2022-07-23T02:40:59;18.40;81.70
20057;DHT22;10189;49.546;7.906;2022-07-23T02:43:24;18.50;81.90
20057;DHT22;10189;49.546;7.906;2022-07-23T02:45:50;18.60;81.60
20057;DHT22;10189;49.546;7.906;2022-07-23T02:48:16;18.60;80.60
20057;DHT22;10189;49.546;7.906;2022-07-23T02:50:44;18.60;80.90
20057;DHT22;10189;49.546;7.906;2022-07-23T02:53:13;18.60;80.70
20057;DHT22;10189;49.546;7.906;2022-07-23T02:55:40;18.70;79.80
20057;DHT22;10189;49.546;7.906;2022-07-23T02:58:06;18.70;80.10
20057;DHT22;10189;49.546;7.906;2022-07-23T03:00:32;18.70;81.00
20057;DHT22;10189;49.546;7.906;2022-07-23T03:02:58;18.80;79.40
20057;DHT22;10189;49.546;7.906;2022-07-23T03:05:25;18.80;79.60
20057;DHT22;10189;49.546;7.906;2022-07-23T03:07:51;18.90;79.10
20057;DHT22;10189;49.546;7.906;2022-07-23T03:10:17;19.00;79.30
20057;DHT22;10189;49.546;7.906;2022-07-23T03:12:44;19.10;78.80
20057;DHT22;10189;49.546;7.906;2022-07-23T03:15:10;19.10;78.20
20057;DHT22;10189;49.546;7.906;2022-07-23T03:17:36;19.10;77.50
20057;DHT22;10189;49.546;7.906;2022-07-23T03:20:02;19.10;77.10
20057;DHT22;10189;49.546;7.906;2022-07-23T03:22:29;19.20;77.10
20057;DHT22;10189;49.546;7.906;2022-07-23T03:24:54;19.20;77.30
20057;DHT22;10189;49.546;7.906;2022-07-23T03:27:29;19.10;77.70
20057;DHT22;10189;49.546;7.906;2022-07-23T03:29:57;19.10;77.60
20057;DHT22;10189;49.546;7.906;2022-07-23T03:32:25;19.20;77.50
20057;DHT22;10189;49.546;7.906;2022-07-23T03:34:51;19.20;77.20
20057;DHT22;10189;49.546;7.906;2022-07-23T03:37:18;19.20;77.30
20057;DHT22;10189;49.546;7.906;2022-07-23T03:39:46;19.20;76.80
20057;DHT22;10189;49.546;7.906;2022-07-23T03:42:12;19.00;77.60
20057;DHT22;10189;49.546;7.906;2022-07-23T03:44:38;18.90;78.40
20057;DHT22;10189;49.546;7.906;2022-07-23T03:47:05;19.00;78.20
20057;DHT22;10189;49.546;7.906;2022-07-23T03:49:32;18.90;78.30
20057;DHT22;10189;49.546;7.906;2022-07-23T03:51:59;18.90;78.50
20057;DHT22;10189;49.546;7.906;2022-07-23T03:54:26;18.70;79.00
20057;DHT22;10189;49.546;7.906;2022-07-23T03:56:52;18.60;79.60
20057;DHT22;10189;49.546;7.906;2022-07-23T03:59:18;18.50;80.00
20057;DHT22;10189;49.546;7.906;2022-07-23T04:01:44;18.50;80.30
20057;DHT22;10189;49.546;7.906;2022-07-23T04:04:10;18.40;80.70
20057;DHT22;10189;49.546;7.906;2022-07-23T04:06:39;18.50;80.70
20057;DHT22;10189;49.546;7.906;2022-07-23T04:09:05;18.40;81.00
20057;DHT22;10189;49.546;7.906;2022-07-23T04:11:32;18.50;81.00
20057;DHT22;10189;49.546;7.906;2022-07-23T04:13:58;18.60;80.60
20057;DHT22;10189;49.546;7.906;2022-07-23T04:16:24;18.60;80.70
20057;DHT22;10189;49.546;7.906;2022-07-23T04:18:50;18.50;81.60
20057;DHT22;10189;49.546;7.906;2022-07-23T04:21:19;18.30;82.80
20057;DHT22;10189;49.546;7.906;2022-07-23T04:23:46;18.20;83.20
20057;DHT22;10189;49.546;7.906;2022-07-23T04:26:13;18.30;84.00
20057;DHT22;10189;49.546;7.906;2022-07-23T04:28:39;18.40;83.50
20057;DHT22;10189;49.546;7.906;2022-07-23T04:31:05;18.50;83.80
20057;DHT22;10189;49.546;7.906;2022-07-23T04:33:32;18.50;83.60
20057;DHT22;10189;49.546;7.906;2022-07-23T04:36:03;18.50;82.80
20057;DHT22;10189;49.546;7.906;2022-07-23T04:38:29;18.70;81.90
20057;DHT22;10189;49.546;7.906;2022-07-23T04:41:00;18.70;81.70
20057;DHT22;10189;49.546;7.906;2022-07-23T04:43:26;18.70;82.20
20057;DHT22;10189;49.546;7.906;2022-07-23T04:45:53;18.80;82.30
20057;DHT22;10189;49.546;7.906;2022-07-23T04:48:19;18.80;82.10
20057;DHT22;10189;49.546;7.906;2022-07-23T04:50:48;18.80;81.70
20057;DHT22;10189;49.546;7.906;2022-07-23T04:53:17;18.70;81.60
20057;DHT22;10189;49.546;7.906;2022-07-23T04:55:46;18.70;82.20
20057;DHT22;10189;49.546;7.906;2022-07-23T04:58:12;18.60;82.50
20057;DHT22;10189;49.546;7.906;2022-07-23T05:00:38;18.50;83.50
20057;DHT22;10189;49.546;7.906;2022-07-23T05:03:04;18.50;83.20
20057;DHT22;10189;49.546;7.906;2022-07-23T05:05:31;18.60;83.20
20057;DHT22;10189;49.546;7.906;2022-07-23T05:08:06;18.70;82.80
20057;DHT22;10189;49.546;7.906;2022-07-23T05:10:36;18.70;82.90
20057;DHT22;10189;49.546;7.906;2022-07-23T05:13:02;18.80;82.10
20057;DHT22;10189;49.546;7.906;2022-07-23T05:15:28;18.60;81.90
20057;DHT22;10189;49.546;7.906;2022-07-23T05:17:54;18.60;82.40
20057;DHT22;10189;49.546;7.906;2022-07-23T05:20:20;18.60;82.70
20057;DHT22;10189;49.546;7.906;2022-07-23T05:22:47;18.60;82.70
20057;DHT22;10189;49.546;7.906;2022-07-23T05:25:12;18.60;82.90
20057;DHT22;10189;49.546;7.906;2022-07-23T05:27:38;18.70;83.10
20057;DHT22;10189;49.546;7.906;2022-07-23T05:30:05;18.90;81.30
20057;DHT22;10189;49.546;7.906;2022-07-23T05:32:34;19.10;80.60
20057;DHT22;10189;49.546;7.906;2022-07-23T05:35:11;19.20;80.20
20057;DHT22;10189;49.546;7.906;2022-07-23T05:37:40;19.30;79.80
20057;DHT22;10189;49.546;7.906;2022-07-23T05:40:09;19.50;79.60
20057;DHT22;10189;49.546;7.906;2022-07-23T05:42:37;19.70;78.20
20057;DHT22;10189;49.546;7.906;2022-07-23T05:45:05;20.00;77.20
20057;DHT22;10189;49.546;7.906;2022-07-23T05:47:48;20.30;76.10
20057;DHT22;10189;49.546;7.906;2022-07-23T05:50:23;20.70;75.20
20057;DHT22;10189;49.546;7.906;2022-07-23T05:52:56;20.90;72.90
20057;DHT22;10189;49.546;7.906;2022-07-23T05:55:46;21.20;72.40
20057;DHT22;10189;49.546;7.906;2022-07-23T05:58:12;21.40;72.80
20057;DHT22;10189;49.546;7.906;2022-07-23T06:00:38;21.50;71.10
20057;DHT22;10189;49.546;7.906;2022-07-23T06:03:04;21.50;71.70
20057;DHT22;10189;49.546;7.906;2022-07-23T06:05:31;21.40;70.50
20057;DHT22;10189;49.546;7.906;2022-07-23T06:07:57;21.30;69.70
20057;DHT22;10189;49.546;7.906;2022-07-23T06:10:24;21.20;69.70
20057;DHT22;10189;49.546;7.906;2022-07-23T06:12:50;21.50;71.40
20057;DHT22;10189;49.546;7.906;2022-07-23T06:15:17;21.70;71.00
20057;DHT22;10189;49.546;7.906;2022-07-23T06:17:43;22.00;69.40
20057;DHT22;10189;49.546;7.906;2022-07-23T06:20:10;22.30;68.80
20057;DHT22;10189;49.546;7.906;2022-07-23T06:22:38;22.50;68.30
20057;DHT22;10189;49.546;7.906;2022-07-23T06:25:05;22.80;67.60
20057;DHT22;10189;49.546;7.906;2022-07-23T06:27:32;23.00;68.00
20057;DHT22;10189;49.546;7.906;2022-07-23T06:29:59;23.00;66.60
20057;DHT22;10189;49.546;7.906;2022-07-23T06:32:25;22.80;66.40
20057;DHT22;10189;49.546;7.906;2022-07-23T06:34:51;22.60;67.50
20057;DHT22;10189;49.546;7.906;2022-07-23T06:37:20;22.30;67.90
20057;DHT22;10189;49.546;7.906;2022-07-23T06:39:46;22.20;68.40
20057;DHT22;10189;49.546;7.906;2022-07-23T06:42:12;22.30;68.20
20057;DHT22;10189;49.546;7.906;2022-07-23T06:44:43;22.20;67.10
20057;DHT22;10189;49.546;7.906;2022-07-23T06:47:09;22.30;67.80
20057;DHT22;10189;49.546;7.906;2022-07-23T06:49:35;22.30;67.50
20057;DHT22;10189;49.546;7.906;2022-07-23T06:52:01;22.40;67.70
20057;DHT22;10189;49.546;7.906;2022-07-23T06:54:27;22.50;66.60
20057;DHT22;10189;49.546;7.906;2022-07-23T06:56:53;22.50;66.60
20057;DHT22;10189;49.546;7.906;2022-07-23T06:59:19;22.40;67.00
20057;DHT22;10189;49.546;7.906;2022-07-23T07:01:45;22.30;67.00
20057;DHT22;10189;49.546;7.906;2022-07-23T07:04:11;22.20;66.90
20057;DHT22;10189;49.546;7.906;2022-07-23T07:06:37;21.90;68.30
20057;DHT22;10189;49.546;7.906;2022-07-23T07:09:03;22.00;68.10
20057;DHT22;10189;49.546;7.906;2022-07-23T07:11:29;22.20;68.30
20057;DHT22;10189;49.546;7.906;2022-07-23T07:13:55;22.40;67.10
20057;DHT22;10189;49.546;7.906;2022-07-23T07:16:21;22.30;67.30
20057;DHT22;10189;49.546;7.906;2022-07-23T07:18:47;22.20;66.60
20057;DHT22;10189;49.546;7.906;2022-07-23T07:21:13;22.20;67.70
20057;DHT22;10189;49.546;7.906;2022-07-23T07:23:38;22.00;67.70
20057;DHT22;10189;49.546;7.906;2022-07-23T07:26:05;21.90;67.50
20057;DHT22;10189;49.546;7.906;2022-07-23T07:28:31;22.00;68.10
20057;DHT22;10189;49.546;7.906;2022-07-23T07:30:56;21.90;68.00
20057;DHT22;10189;49.546;7.906;2022-07-23T07:33:22;21.60;68.90
20057;DHT22;10189;49.546;7.906;2022-07-23T07:35:48;21.50;68.80
20057;DHT22;10189;49.546;7.906;2022-07-23T07:38:14;21.50;69.70
20057;DHT22;10189;49.546;7.906;2022-07-23T07:40:40;21.80;68.80
20057;DHT22;10189;49.546;7.906;2022-07-23T07:43:06;22.20;67.30
20057;DHT22;10189;49.546;7.906;2022-07-23T07:45:32;22.70;67.00
20057;DHT22;10189;49.546;7.906;2022-07-23T07:47:58;23.30;64.80
20057;DHT22;10189;49.546;7.906;2022-07-23T07:50:24;23.60;62.80
20057;DHT22;10189;49.546;7.906;2022-07-23T07:52:50;23.50;62.70
20057;DHT22;10189;49.546;7.906;2022-07-23T07:55:16;23.20;63.70
20057;DHT22;10189;49.546;7.906;2022-07-23T07:57:42;23.10;64.40
20057;DHT22;10189;49.546;7.906;2022-07-23T08:00:09;23.10;65.00
20057;DHT22;10189;49.546;7.906;2022-07-23T08:02:47;23.20;62.60
20057;DHT22;10189;49.546;7.906;2022-07-23T08:05:14;23.00;63.60
20057;DHT22;10189;49.546;7.906;2022-07-23T08:07:45;23.40;66.10
20057;DHT22;10189;49.546;7.906;2022-07-23T08:10:11;23.50;63.50
20057;DHT22;10189;49.546;7.906;2022-07-23T08:12:48;23.50;63.70
20057;DHT22;10189;49.546;7.906;2022-07-23T08:15:20;23.60;61.80
20057;DHT22;10189;49.546;7.906;2022-07-23T08:17:47;23.50;63.00
20057;DHT22;10189;49.546;7.906;2022-07-23T08:20:17;23.20;63.10
20057;DHT22;10189;49.546;7.906;2022-07-23T08:22:58;23.20;65.20
20057;DHT22;10189;49.546;7.906;2022-07-23T08:25:39;23.30;63.80
20057;DHT22;10189;49.546;7.906;2022-07-23T08:28:09;23.60;61.90
20057;DHT22;10189;49.546;7.906;2022-07-23T08:30:38;23.60;62.70
20057;DHT22;10189;49.546;7.906;2022-07-23T08:33:07;23.70;60.10
20057;DHT22;10189;49.546;7.906;2022-07-23T08:35:40;23.80;61.80
20057;DHT22;10189;49.546;7.906;2022-07-23T08:38:14;24.00;62.10
20057;DHT22;10189;49.546;7.906;2022-07-23T08:40:45;24.30;59.60
20057;DHT22;10189;49.546;7.906;2022-07-23T08:43:14;24.50;60.00
20057;DHT22;10189;49.546;7.906;2022-07-23T08:45:53;24.80;59.40
20057;DHT22;10189;49.546;7.906;2022-07-23T08:48:26;24.50;59.10
20057;DHT22;10189;49.546;7.906;2022-07-23T08:51:01;24.50;60.10
20057;DHT22;10189;49.546;7.906;2022-07-23T08:53:29;24.70;59.20
20057;DHT22;10189;49.546;7.906;2022-07-23T08:55:58;25.00;57.70
20057;DHT22;10189;49.546;7.906;2022-07-23T08:58:27;25.00;57.40
20057;DHT22;10189;49.546;7.906;2022-07-23T09:00:53;24.60;57.60
20057;DHT22;10189;49.546;7.906;2022-07-23T09:03:22;24.80;57.40
20057;DHT22;10189;49.546;7.906;2022-07-23T09:05:51;25.00;58.70
20057;DHT22;10189;49.546;7.906;2022-07-23T09:08:23;25.30;56.10
20057;DHT22;10189;49.546;7.906;2022-07-23T09:11:11;25.50;57.20
20057;DHT22;10189;49.546;7.906;2022-07-23T09:13:51;25.50;55.60
20057;DHT22;10189;49.546;7.906;2022-07-23T09:16:25;25.40;55.00
20057;DHT22;10189;49.546;7.906;2022-07-23T09:21:26;24.90;57.10
20057;DHT22;10189;49.546;7.906;2022-07-23T09:26:35;24.90;56.60
20057;DHT22;10189;49.546;7.906;2022-07-23T09:29:10;25.00;57.00
20057;DHT22;10189;49.546;7.906;2022-07-23T09:32:02;25.40;55.70
20057;DHT22;10189;49.546;7.906;2022-07-23T09:34:35;25.90;55.40
20057;DHT22;10189;49.546;7.906;2022-07-23T09:37:15;26.10;54.20
20057;DHT22;10189;49.546;7.906;2022-07-23T09:39:45;26.30;53.50
20057;DHT22;10189;49.546;7.906;2022-07-23T09:42:21;26.40;53.20
20057;DHT22;10189;49.546;7.906;2022-07-23T09:44:50;26.30;54.20
20057;DHT22;10189;49.546;7.906;2022-07-23T09:47:18;26.10;53.00
20057;DHT22;10189;49.546;7.906;2022-07-23T09:50:04;25.80;55.00
20057;DHT22;10189;49.546;7.906;2022-07-23T09:52:56;25.80;53.80
20057;DHT22;10189;49.546;7.906;2022-07-23T09:55:31;26.00;55.80
20057;DHT22;10189;49.546;7.906;2022-07-23T09:58:08;26.30;53.50
20057;DHT22;10189;49.546;7.906;2022-07-23T10:00:40;26.50;51.90
20057;DHT22;10189;49.546;7.906;2022-07-23T10:03:09;26.50;51.70
20057;DHT22;10189;49.546;7.906;2022-07-23T10:05:40;26.50;52.30
20057;DHT22;10189;49.546;7.906;2022-07-23T10:08:28;26.60;52.50
20057;DHT22;10189;49.546;7.906;2022-07-23T10:11:16;26.80;51.40
20057;DHT22;10189;49.546;7.906;2022-07-23T10:13:51;26.70;51.30
20057;DHT22;10189;49.546;7.906;2022-07-23T10:16:38;26.90;51.70
20057;DHT22;10189;49.546;7.906;2022-07-23T10:19:04;26.90;50.20
20057;DHT22;10189;49.546;7.906;2022-07-23T10:21:54;27.00;51.30
20057;DHT22;10189;49.546;7.906;2022-07-23T10:36:44;27.20;49.70
20057;DHT22;10189;49.546;7.906;2022-07-23T10:39:29;27.10;50.70
20057;DHT22;10189;49.546;7.906;2022-07-23T10:42:14;27.40;49.80
20057;DHT22;10189;49.546;7.906;2022-07-23T10:44:44;27.30;49.30
20057;DHT22;10189;49.546;7.906;2022-07-23T10:47:25;27.30;48.90
20057;DHT22;10189;49.546;7.906;2022-07-23T10:57:58;27.30;49.60
20057;DHT22;10189;49.546;7.906;2022-07-23T11:00:25;27.30;49.50
20057;DHT22;10189;49.546;7.906;2022-07-23T11:02:57;27.00;49.40
20057;DHT22;10189;49.546;7.906;2022-07-23T11:05:45;27.30;49.50
20057;DHT22;10189;49.546;7.906;2022-07-23T11:10:47;27.00;49.60
20057;DHT22;10189;49.546;7.906;2022-07-23T11:13:42;27.10;50.20
20057;DHT22;10189;49.546;7.906;2022-07-23T11:16:22;27.00;50.50
20057;DHT22;10189;49.546;7.906;2022-07-23T11:18:57;27.20;50.30
20057;DHT22;10189;49.546;7.906;2022-07-23T11:32:17;27.10;50.50
20057;DHT22;10189;49.546;7.906;2022-07-23T11:34:50;27.30;49.20
20057;DHT22;10189;49.546;7.906;2022-07-23T11:40:11;27.50;47.90
20057;DHT22;10189;49.546;7.906;2022-07-23T11:42:40;27.80;48.90
20057;DHT22;10189;49.546;7.906;2022-07-23T11:45:38;28.00;49.00
20057;DHT22;10189;49.546;7.906;2022-07-23T11:48:08;28.00;48.60
20057;DHT22;10189;49.546;7.906;2022-07-23T11:50:40;28.00;48.50
20057;DHT22;10189;49.546;7.906;2022-07-23T11:53:06;28.00;48.40
20057;DHT22;10189;49.546;7.906;2022-07-23T11:55:32;27.90;47.50
20057;DHT22;10189;49.546;7.906;2022-07-23T11:57:58;27.80;47.40
20057;DHT22;10189;49.546;7.906;2022-07-23T12:00:27;28.10;48.60
20057;DHT22;10189;49.546;7.906;2022-07-23T12:02:59;28.30;47.30
20057;DHT22;10189;49.546;7.906;2022-07-23T12:05:32;28.30;47.40
20057;DHT22;10189;49.546;7.906;2022-07-23T12:08:02;28.30;46.30
20057;DHT22;10189;49.546;7.906;2022-07-23T12:10:42;28.30;47.40
20057;DHT22;10189;49.546;7.906;2022-07-23T12:13:12;28.60;45.10
20057;DHT22;10189;49.546;7.906;2022-07-23T12:15:41;28.70;44.90
20057;DHT22;10189;49.546;7.906;2022-07-23T12:18:11;28.60;45.30
20057;DHT22;10189;49.546;7.906;2022-07-23T12:20:44;28.20;45.30
20057;DHT22;10189;49.546;7.906;2022-07-23T12:23:14;28.10;45.20
20057;DHT22;10189;49.546;7.906;2022-07-23T12:25:44;28.00;45.10
20057;DHT22;10189;49.546;7.906;2022-07-23T12:30:48;27.70;44.90
20057;DHT22;10189;49.546;7.906;2022-07-23T12:33:34;27.80;45.10
20057;DHT22;10189;49.546;7.906;2022-07-23T12:36:05;27.90;45.40
20057;DHT22;10189;49.546;7.906;2022-07-23T12:41:08;27.80;45.10
20057;DHT22;10189;49.546;7.906;2022-07-23T12:43:37;27.70;45.80
20057;DHT22;10189;49.546;7.906;2022-07-23T12:46:12;27.90;47.40
20057;DHT22;10189;49.546;7.906;2022-07-23T12:51:19;28.40;44.60
20057;DHT22;10189;49.546;7.906;2022-07-23T12:53:47;28.30;43.70
20057;DHT22;10189;49.546;7.906;2022-07-23T12:56:26;27.80;44.80
20057;DHT22;10189;49.546;7.906;2022-07-23T12:58:57;27.60;45.80
20057;DHT22;10189;49.546;7.906;2022-07-23T13:01:31;27.20;46.30
20057;DHT22;10189;49.546;7.906;2022-07-23T13:06:42;27.50;46.60
20057;DHT22;10189;49.546;7.906;2022-07-23T13:09:13;27.80;45.40
20057;DHT22;10189;49.546;7.906;2022-07-23T13:11:47;27.90;45.70
20057;DHT22;10189;49.546;7.906;2022-07-23T13:14:16;27.90;44.90
20057;DHT22;10189;49.546;7.906;2022-07-23T13:16:44;27.90;46.30
20057;DHT22;10189;49.546;7.906;2022-07-23T13:19:11;28.00;44.30
20057;DHT22;10189;49.546;7.906;2022-07-23T13:21:41;28.20;45.00
20057;DHT22;10189;49.546;7.906;2022-07-23T13:24:09;28.20;43.60
20057;DHT22;10189;49.546;7.906;2022-07-23T13:26:37;28.10;43.00
20057;DHT22;10189;49.546;7.906;2022-07-23T13:29:07;28.20;45.90
20057;DHT22;10189;49.546;7.906;2022-07-23T13:31:33;28.60;43.40
20057;DHT22;10189;49.546;7.906;2022-07-23T13:34:02;28.30;43.70
20057;DHT22;10189;49.546;7.906;2022-07-23T13:36:28;28.50;43.20
20057;DHT22;10189;49.546;7.906;2022-07-23T13:38:54;28.90;42.30
20057;DHT22;10189;49.546;7.906;2022-07-23T13:41:20;29.30;44.10
20057;DHT22;10189;49.546;7.906;2022-07-23T13:43:46;29.60;42.00
20057;DHT22;10189;49.546;7.906;2022-07-23T13:46:12;29.60;41.30
20057;DHT22;10189;49.546;7.906;2022-07-23T13:48:38;29.40;40.80
20057;DHT22;10189;49.546;7.906;2022-07-23T13:51:04;29.30;41.20
20057;DHT22;10189;49.546;7.906;2022-07-23T13:53:30;29.00;42.00
20057;DHT22;10189;49.546;7.906;2022-07-23T13:55:56;28.90;43.20
20057;DHT22;10189;49.546;7.906;2022-07-23T13:58:23;29.00;42.30
20057;DHT22;10189;49.546;7.906;2022-07-23T14:00:51;29.00;43.70
20057;DHT22;10189;49.546;7.906;2022-07-23T14:03:19;29.00;43.60
20057;DHT22;10189;49.546;7.906;2022-07-23T14:05:48;28.90;43.70
20057;DHT22;10189;49.546;7.906;2022-07-23T14:08:15;28.80;42.10
20057;DHT22;10189;49.546;7.906;2022-07-23T14:10:41;28.80;43.30
20057;DHT22;10189;49.546;7.906;2022-07-23T14:13:07;28.90;42.70
20057;DHT22;10189;49.546;7.906;2022-07-23T14:15:33;28.90;42.30
20057;DHT22;10189;49.546;7.906;2022-07-23T14:17:59;29.20;43.30
20057;DHT22;10189;49.546;7.906;2022-07-23T14:20:25;29.40;43.20
20057;DHT22;10189;49.546;7.906;2022-07-23T14:22:51;29.60;42.10
20057;DHT22;10189;49.546;7.906;2022-07-23T14:25:18;29.50;40.50
20057;DHT22;10189;49.546;7.906;2022-07-23T14:27:44;29.30;43.30
20057;DHT22;10189;49.546;7.906;2022-07-23T14:30:11;29.30;40.90
20057;DHT22;10189;49.546;7.906;2022-07-23T14:32:38;29.00;40.90
20057;DHT22;10189;49.546;7.906;2022-07-23T14:35:05;28.60;40.90
20057;DHT22;10189;49.546;7.906;2022-07-23T14:37:31;28.40;41.70
20057;DHT22;10189;49.546;7.906;2022-07-23T14:39:58;28.60;41.90
20057;DHT22;10189;49.546;7.906;2022-07-23T14:42:24;29.00;41.00
20057;DHT22;10189;49.546;7.906;2022-07-23T14:44:51;28.90;40.80
20057;DHT22;10189;49.546;7.906;2022-07-23T14:47:17;28.60;40.70
20057;DHT22;10189;49.546;7.906;2022-07-23T14:49:43;28.60;41.30
20057;DHT22;10189;49.546;7.906;2022-07-23T14:52:09;28.70;41.00
20057;DHT22;10189;49.546;7.906;2022-07-23T14:54:35;28.80;40.40
20057;DHT22;10189;49.546;7.906;2022-07-23T14:57:03;28.40;40.80
20057;DHT22;10189;49.546;7.906;2022-07-23T14:59:29;28.10;41.70
20057;DHT22;10189;49.546;7.906;2022-07-23T15:01:57;27.90;42.00
20057;DHT22;10189;49.546;7.906;2022-07-23T15:04:24;27.90;42.20
20057;DHT22;10189;49.546;7.906;2022-07-23T15:06:50;27.80;42.60
20057;DHT22;10189;49.546;7.906;2022-07-23T15:09:16;27.80;42.90
20057;DHT22;10189;49.546;7.906;2022-07-23T15:11:42;27.70;43.20
20057;DHT22;10189;49.546;7.906;2022-07-23T15:14:09;27.90;42.50
20057;DHT22;10189;49.546;7.906;2022-07-23T15:16:35;28.00;42.00
20057;DHT22;10189;49.546;7.906;2022-07-23T15:19:02;27.90;42.00
20057;DHT22;10189;49.546;7.906;2022-07-23T15:21:29;27.80;42.40
20057;DHT22;10189;49.546;7.906;2022-07-23T15:23:56;27.90;42.20
20057;DHT22;10189;49.546;7.906;2022-07-23T15:26:26;28.00;42.10
20057;DHT22;10189;49.546;7.906;2022-07-23T15:28:54;28.10;42.10
20057;DHT22;10189;49.546;7.906;2022-07-23T15:31:20;28.00;41.80
20057;DHT22;10189;49.546;7.906;2022-07-23T15:33:46;27.80;42.20
20057;DHT22;10189;49.546;7.906;2022-07-23T15:36:12;27.90;42.40
20057;DHT22;10189;49.546;7.906;2022-07-23T15:38:38;28.00;42.00
20057;DHT22;10189;49.546;7.906;2022-07-23T15:41:04;28.20;42.20
20057;DHT22;10189;49.546;7.906;2022-07-23T15:43:30;28.00;42.00
20057;DHT22;10189;49.546;7.906;2022-07-23T15:45:57;28.00;41.60
20057;DHT22;10189;49.546;7.906;2022-07-23T15:48:23;28.10;42.10
20057;DHT22;10189;49.546;7.906;2022-07-23T15:50:50;28.20;40.90
20057;DHT22;10189;49.546;7.906;2022-07-23T15:53:16;28.20;41.10
20057;DHT22;10189;49.546;7.906;2022-07-23T15:55:42;28.20;41.00
20057;DHT22;10189;49.546;7.906;2022-07-23T15:58:10;28.60;41.10
20057;DHT22;10189;49.546;7.906;2022-07-23T16:00:36;29.00;40.40
20057;DHT22;10189;49.546;7.906;2022-07-23T16:03:02;29.30;40.50
20057;DHT22;10189;49.546;7.906;2022-07-23T16:05:28;29.20;39.90
20057;DHT22;10189;49.546;7.906;2022-07-23T16:07:54;29.30;39.30
20057;DHT22;10189;49.546;7.906;2022-07-23T16:10:20;29.50;39.00
20057;DHT22;10189;49.546;7.906;2022-07-23T16:12:47;29.40;39.20
20057;DHT22;10189;49.546;7.906;2022-07-23T16:15:14;29.00;39.40
20057;DHT22;10189;49.546;7.906;2022-07-23T16:17:40;29.10;39.70
20057;DHT22;10189;49.546;7.906;2022-07-23T16:20:06;29.70;38.70
20057;DHT22;10189;49.546;7.906;2022-07-23T16:22:34;30.30;38.50
20057;DHT22;10189;49.546;7.906;2022-07-23T16:25:02;31.00;37.10
20057;DHT22;10189;49.546;7.906;2022-07-23T16:27:32;31.60;36.30
20057;DHT22;10189;49.546;7.906;2022-07-23T16:29:59;31.80;35.80
20057;DHT22;10189;49.546;7.906;2022-07-23T16:32:25;31.90;35.30